Time;durP1;ratioP1;P1;durP2;ratioP2;P2;SDS_P1;SDS_P2;PMS_P1;PMS_P2;Temp;Humidity;BMP_temperature;BMP_pressure;BME280_temperature;BME280_humidity;BME280_pressure;Samples;Min_cycle;Max_cycle;Signal;HPM_P1;HPM_P2
2023/01/01 00:04:33;;;;;;;145.93;114.35;;;;;;;;;;10104173;28;20084;-68
2023/01/01 00:14:41;;;;;;;137.77;103.70;;;;;;;;;;10110964;28;20568;-69
2023/01/01 00:19:35;;;;;;;136.75;102.43;;;;;;;;;;10112310;28;20472;-68
2023/01/01 00:24:29;;;;;;;119.45;95.63;;;;;;;;;;10120295;28;20083;-68
2023/01/01 00:29:23;;;;;;;101.60;78.10;;;;;;;;;;10111783;28;20053;-68
2023/01/01 00:34:17;;;;;;;96.50;71.38;;;;;;;;;;10109876;28;20053;-70
2023/01/01 00:39:11;;;;;;;85.32;67.85;;;;;;;;;;10109079;28;20135;-69
2023/01/01 00:44:04;;;;;;;98.82;73.88;;;;;;;;;;10114283;28;20082;-69
2023/01/01 00:48:58;;;;;;;90.47;69.97;;;;;;;;;;10125212;28;20091;-68
2023/01/01 00:53:52;;;;;;;96.28;75.78;;;;;;;;;;10123570;28;20549;-69
2023/01/01 00:58:46;;;;;;;99.13;78.15;;;;;;;;;;10106126;28;20090;-68
2023/01/01 01:03:54;;;;;;;91.72;75.25;;;;;;;;;;10115283;28;20500;-68
2023/01/01 01:08:48;;;;;;;104.97;80.70;;;;;;;;;;10110594;28;20051;-68
2023/01/01 01:13:43;;;;;;;104.78;79.68;;;;;;;;;;10107288;28;20425;-69
2023/01/01 01:18:37;;;;;;;102.78;81.10;;;;;;;;;;10107750;28;20488;-68
2023/01/01 01:23:31;;;;;;;101.50;79.35;;;;;;;;;;10109620;28;20091;-69
2023/01/01 01:28:24;;;;;;;104.90;76.97;;;;;;;;;;10097371;28;20065;-69
2023/01/01 01:33:18;;;;;;;94.43;71.07;;;;;;;;;;10107062;28;20501;-69
2023/01/01 01:38:11;;;;;;;88.72;64.03;;;;;;;;;;10107361;28;20132;-69
2023/01/01 01:43:05;;;;;;;83.82;60.25;;;;;;;;;;10119243;28;20118;-69
2023/01/01 01:47:59;;;;;;;82.80;61.78;;;;;;;;;;10106501;28;20052;-69
2023/01/01 01:53:08;;;;;;;95.93;67.45;;;;;;;;;;10038225;28;2115335;-69
2023/01/01 01:58:02;;;;;;;82.72;57.85;;;;;;;;;;10121738;28;20041;-69
2023/01/01 02:02:57;;;;;;;61.38;46.75;;;;;;;;;;10107651;28;20049;-69
2023/01/01 02:07:51;;;;;;;60.90;44.17;;;;;;;;;;10110135;28;20132;-69
2023/01/01 02:12:45;;;;;;;63.67;46.20;;;;;;;;;;10104696;28;20053;-69
2023/01/01 02:18:01;;;;;;;61.05;44.53;;;;;;;;;;10105566;28;20052;-69
2023/01/01 02:23:12;;;;;;;54.42;43.97;;;;;;;;;;10104891;28;20091;-69
2023/01/01 02:28:42;;;;;;;64.53;47.78;;;;;;;;;;10111541;28;20041;-69
2023/01/01 02:33:36;;;;;;;57.58;40.53;;;;;;;;;;10107161;28;20586;-69
2023/01/01 02:38:50;;;;;;;62.42;48.55;;;;;;;;;;10112318;28;20048;-68
2023/01/01 02:43:50;;;;;;;62.40;45.85;;;;;;;;;;10104262;28;20059;-69
2023/01/01 02:48:48;;;;;;;62.88;46.88;;;;;;;;;;10106495;28;20060;-69
2023/01/01 02:53:47;;;;;;;68.55;47.60;;;;;;;;;;10108887;28;20052;-69
2023/01/01 03:04:21;;;;;;;70.90;50.38;;;;;;;;;;10106017;28;19947;-71
2023/01/01 03:09:14;;;;;;;60.38;41.58;;;;;;;;;;10110170;28;20048;-70
2023/01/01 03:14:43;;;;;;;56.05;43.00;;;;;;;;;;10105727;28;20045;-69
2023/01/01 03:19:38;;;;;;;55.42;42.90;;;;;;;;;;10098157;28;20072;-69
2023/01/01 03:24:35;;;;;;;57.03;41.65;;;;;;;;;;10116519;28;20500;-69
2023/01/01 03:30:07;;;;;;;55.85;41.88;;;;;;;;;;10098485;28;20045;-69
2023/01/01 03:35:20;;;;;;;58.63;40.92;;;;;;;;;;10096385;28;20060;-70
2023/01/01 03:40:16;;;;;;;54.72;43.08;;;;;;;;;;10105294;28;20049;-69
2023/01/01 03:45:35;;;;;;;56.70;41.05;;;;;;;;;;10104461;28;20045;-68
2023/01/01 03:50:51;;;;;;;49.33;37.90;;;;;;;;;;10117879;28;20165;-69
2023/01/01 03:56:09;;;;;;;51.90;36.42;;;;;;;;;;10118503;28;20048;-69
2023/01/01 04:01:33;;;;;;;50.40;35.08;;;;;;;;;;10111016;28;20049;-69
2023/01/01 04:06:28;;;;;;;52.10;35.60;;;;;;;;;;10120261;28;20049;-70
2023/01/01 04:16:36;;;;;;;46.72;32.20;;;;;;;;;;10125159;28;20143;-69
2023/01/01 04:21:49;;;;;;;46.22;34.20;;;;;;;;;;10134738;28;20067;-69
2023/01/01 04:26:43;;;;;;;45.65;33.83;;;;;;;;;;10112414;28;20091;-69
2023/01/01 04:31:37;;;;;;;43.85;34.10;;;;;;;;;;10111571;28;20084;-69
2023/01/01 04:36:31;;;;;;;45.75;33.50;;;;;;;;;;10108019;28;20106;-69
2023/01/01 04:41:25;;;;;;;50.25;36.45;;;;;;;;;;10110629;28;20049;-69
2023/01/01 04:46:20;;;;;;;51.13;34.45;;;;;;;;;;10120537;28;20120;-68
2023/01/01 04:51:14;;;;;;;48.05;35.42;;;;;;;;;;10089114;28;20057;-68
2023/01/01 04:56:12;;;;;;;47.55;34.08;;;;;;;;;;10091935;28;20048;-69
2023/01/01 05:01:06;;;;;;;50.65;37.40;;;;;;;;;;10110396;28;20074;-70
2023/01/01 05:06:00;;;;;;;50.75;36.35;;;;;;;;;;10110473;28;20051;-69
2023/01/01 05:10:59;;;;;;;50.45;35.67;;;;;;;;;;10109805;28;20053;-69
2023/01/01 05:15:53;;;;;;;49.75;35.90;;;;;;;;;;10110219;28;20052;-69
2023/01/01 05:20:47;;;;;;;50.55;38.58;;;;;;;;;;10110531;28;20057;-69
2023/01/01 05:25:41;;;;;;;51.17;37.50;;;;;;;;;;10109869;28;20301;-69
2023/01/01 05:30:39;;;;;;;49.22;35.30;;;;;;;;;;10112831;28;20048;-70
2023/01/01 05:35:33;;;;;;;44.58;33.40;;;;;;;;;;10115153;28;20049;-69
2023/01/01 05:40:27;;;;;;;51.70;37.92;;;;;;;;;;10110732;28;20048;-69
2023/01/01 05:45:22;;;;;;;45.65;33.83;;;;;;;;;;10119123;28;20060;-69
2023/01/01 05:50:15;;;;;;;51.42;37.42;;;;;;;;;;10110378;28;20056;-68
2023/01/01 05:55:10;;;;;;;59.47;39.22;;;;;;;;;;10111099;28;20061;-68
2023/01/01 06:00:06;;;;;;;51.28;37.00;;;;;;;;;;10114899;28;20110;-69
2023/01/01 06:05:00;;;;;;;50.03;33.17;;;;;;;;;;10108920;28;20036;-69
2023/01/01 06:09:54;;;;;;;48.33;36.13;;;;;;;;;;10107034;28;20163;-69
2023/01/01 06:14:49;;;;;;;45.45;34.38;;;;;;;;;;10109564;28;20116;-69
2023/01/01 06:19:42;;;;;;;46.45;33.30;;;;;;;;;;10108261;28;20061;-69
2023/01/01 06:24:37;;;;;;;45.70;34.00;;;;;;;;;;10102716;28;20517;-69
2023/01/01 06:29:31;;;;;;;45.33;32.22;;;;;;;;;;10104734;28;20525;-68
2023/01/01 06:34:24;;;;;;;41.28;31.33;;;;;;;;;;10110922;28;20045;-68
2023/01/01 06:39:17;;;;;;;42.35;31.30;;;;;;;;;;10105356;28;20041;-69
2023/01/01 06:44:11;;;;;;;38.15;29.50;;;;;;;;;;10106552;28;20132;-68
2023/01/01 06:49:09;;;;;;;36.28;26.20;;;;;;;;;;10106778;28;20132;-69
2023/01/01 06:54:03;;;;;;;36.85;26.05;;;;;;;;;;10067807;28;20136;-70
2023/01/01 06:58:57;;;;;;;33.33;27.67;;;;;;;;;;10077068;28;20060;-69
2023/01/01 07:03:55;;;;;;;31.63;25.88;;;;;;;;;;10072880;28;20088;-68
2023/01/01 07:08:48;;;;;;;34.85;26.13;;;;;;;;;;10065558;28;20038;-69
2023/01/01 07:13:42;;;;;;;34.83;25.25;;;;;;;;;;10065620;28;20057;-69
2023/01/01 07:18:37;;;;;;;35.83;26.48;;;;;;;;;;10065942;28;20083;-68
2023/01/01 07:23:33;;;;;;;31.95;27.65;;;;;;;;;;10065995;28;20054;-71
2023/01/01 07:28:29;;;;;;;36.40;27.05;;;;;;;;;;10055561;28;20104;-71
2023/01/01 07:33:24;;;;;;;37.95;29.30;;;;;;;;;;10066788;28;20084;-71
2023/01/01 07:38:17;;;;;;;33.53;27.48;;;;;;;;;;10076467;28;20083;-71
2023/01/01 07:43:12;;;;;;;40.95;29.48;;;;;;;;;;10077161;28;20111;-71
2023/01/01 07:48:08;;;;;;;37.50;30.85;;;;;;;;;;10065239;28;20487;-68
2023/01/01 07:53:02;;;;;;;43.85;31.98;;;;;;;;;;10063155;28;20107;-70
2023/01/01 07:57:55;;;;;;;41.55;27.42;;;;;;;;;;10064651;28;20049;-70
2023/01/01 08:02:49;;;;;;;37.95;27.92;;;;;;;;;;10064635;28;20045;-70
2023/01/01 08:07:49;;;;;;;39.40;29.38;;;;;;;;;;10073498;28;20092;-69
2023/01/01 08:12:46;;;;;;;39.30;30.48;;;;;;;;;;10064951;28;20049;-69
2023/01/01 08:17:39;;;;;;;45.92;32.75;;;;;;;;;;10065051;28;20057;-70
2023/01/01 08:22:39;;;;;;;44.20;32.30;;;;;;;;;;10064436;28;20050;-70
2023/01/01 08:27:33;;;;;;;42.83;33.08;;;;;;;;;;10064951;28;20051;-70
2023/01/01 08:32:27;;;;;;;43.45;35.20;;;;;;;;;;10070503;28;20453;-70
2023/01/01 08:37:21;;;;;;;39.55;28.83;;;;;;;;;;10084409;28;20521;-69
2023/01/01 08:42:16;;;;;;;34.65;28.33;;;;;;;;;;10077741;28;20049;-69
2023/01/01 08:47:21;;;;;;;35.30;27.02;;;;;;;;;;10075664;28;20120;-68
2023/01/01 08:52:15;;;;;;;37.33;26.95;;;;;;;;;;10092827;28;20463;-68
2023/01/01 08:57:10;;;;;;;40.30;27.30;;;;;;;;;;10115137;28;20708;-69
2023/01/01 09:02:05;;;;;;;41.78;30.85;;;;;;;;;;10107253;28;20136;-69
2023/01/01 09:06:58;;;;;;;40.42;30.38;;;;;;;;;;10106501;28;20052;-70
2023/01/01 09:11:53;;;;;;;38.55;30.13;;;;;;;;;;10106271;28;20057;-69
2023/01/01 09:16:47;;;;;;;46.40;34.00;;;;;;;;;;10107082;28;20047;-69
2023/01/01 09:21:42;;;;;;;47.92;33.58;;;;;;;;;;10109410;28;20681;-70
2023/01/01 09:26:36;;;;;;;41.50;30.38;;;;;;;;;;10112751;28;20405;-70
2023/01/01 09:31:29;;;;;;;32.30;23.77;;;;;;;;;;10111212;28;20132;-69
2023/01/01 09:36:22;;;;;;;29.08;23.08;;;;;;;;;;10120042;28;20110;-69
2023/01/01 09:41:18;;;;;;;31.08;22.92;;;;;;;;;;10110857;28;20045;-69
2023/01/01 09:46:12;;;;;;;23.00;18.13;;;;;;;;;;10099290;28;20044;-69
2023/01/01 09:51:12;;;;;;;17.88;13.07;;;;;;;;;;10119304;28;20053;-69
2023/01/01 09:56:12;;;;;;;11.00;9.90;;;;;;;;;;10107369;28;20152;-69
2023/01/01 10:01:29;;;;;;;10.88;8.60;;;;;;;;;;10100043;28;20128;-70
2023/01/01 10:06:31;;;;;;;15.68;11.15;;;;;;;;;;10107469;28;20079;-68
2023/01/01 10:11:50;;;;;;;18.08;14.55;;;;;;;;;;10090940;28;20520;-68
2023/01/01 10:16:47;;;;;;;23.98;17.02;;;;;;;;;;10103069;28;20057;-67
2023/01/01 10:21:43;;;;;;;25.70;20.35;;;;;;;;;;10127490;28;20493;-68
2023/01/01 10:26:41;;;;;;;25.80;19.30;;;;;;;;;;10108893;28;20098;-68
2023/01/01 10:31:39;;;;;;;27.98;18.35;;;;;;;;;;10110623;28;20075;-70
2023/01/01 10:36:34;;;;;;;28.08;21.65;;;;;;;;;;10081287;28;20519;-69
2023/01/01 10:41:28;;;;;;;29.90;21.52;;;;;;;;;;10107326;28;20127;-68
2023/01/01 10:46:25;;;;;;;33.53;20.70;;;;;;;;;;10108174;28;20144;-70
2023/01/01 10:51:25;;;;;;;28.55;20.75;;;;;;;;;;10113752;28;20152;-66
2023/01/01 10:56:22;;;;;;;27.17;20.05;;;;;;;;;;10114344;28;20041;-69
2023/01/01 11:01:30;;;;;;;29.48;19.52;;;;;;;;;;10100540;28;20072;-67
2023/01/01 11:06:40;;;;;;;31.85;21.17;;;;;;;;;;10105808;28;20045;-66
2023/01/01 11:11:57;;;;;;;32.55;20.85;;;;;;;;;;10109698;28;20045;-67
2023/01/01 11:17:00;;;;;;;28.63;20.05;;;;;;;;;;10123538;28;20079;-69
2023/01/01 11:21:54;;;;;;;27.35;20.05;;;;;;;;;;10110985;28;20656;-68
2023/01/01 11:26:49;;;;;;;20.77;15.80;;;;;;;;;;10107441;28;20052;-68
2023/01/01 11:31:47;;;;;;;18.17;14.27;;;;;;;;;;10100635;28;20395;-68
2023/01/01 11:36:41;;;;;;;20.98;17.02;;;;;;;;;;10104602;28;20060;-67
2023/01/01 11:42:01;;;;;;;24.10;18.45;;;;;;;;;;10100709;28;20081;-68
2023/01/01 11:46:54;;;;;;;24.20;19.73;;;;;;;;;;10113908;28;20048;-66
2023/01/01 11:51:50;;;;;;;24.30;19.17;;;;;;;;;;10110824;28;20060;-67
2023/01/01 11:56:47;;;;;;;27.05;20.48;;;;;;;;;;10114271;28;20056;-67
2023/01/01 12:01:47;;;;;;;25.15;18.42;;;;;;;;;;10103304;28;20052;-66
2023/01/01 12:06:44;;;;;;;25.58;19.90;;;;;;;;;;10093097;28;20053;-67
2023/01/01 12:11:53;;;;;;;22.80;17.48;;;;;;;;;;10111376;28;20494;-66
2023/01/01 12:16:55;;;;;;;23.15;17.48;;;;;;;;;;10114179;28;20127;-66
2023/01/01 12:21:50;;;;;;;22.65;17.88;;;;;;;;;;10116132;28;20470;-67
2023/01/01 12:27:19;;;;;;;26.55;19.30;;;;;;;;;;10118777;28;20075;-66
2023/01/01 12:32:40;;;;;;;22.67;17.42;;;;;;;;;;10112726;28;20067;-66
2023/01/01 12:38:00;;;;;;;25.50;18.92;;;;;;;;;;10130828;28;20505;-66
2023/01/01 12:43:01;;;;;;;25.45;20.23;;;;;;;;;;10098660;28;20045;-66
2023/01/01 12:48:02;;;;;;;24.88;19.05;;;;;;;;;;10116776;28;20095;-66
2023/01/01 12:53:28;;;;;;;25.00;19.63;;;;;;;;;;10126884;28;20055;-67
2023/01/01 12:58:37;;;;;;;24.30;18.42;;;;;;;;;;10123051;28;20060;-66
2023/01/01 13:03:36;;;;;;;25.27;18.20;;;;;;;;;;10113177;28;20052;-67
2023/01/01 13:08:31;;;;;;;22.13;17.17;;;;;;;;;;10099446;28;20033;-66
2023/01/01 13:13:24;;;;;;;22.52;17.08;;;;;;;;;;10110074;28;20057;-64
2023/01/01 13:18:25;;;;;;;19.73;16.02;;;;;;;;;;10108699;28;20056;-64
2023/01/01 13:23:27;;;;;;;20.30;16.25;;;;;;;;;;10084278;28;20067;-66
2023/01/01 13:28:21;;;;;;;16.60;14.75;;;;;;;;;;10081878;28;20049;-65
2023/01/01 13:33:31;;;;;;;15.68;13.93;;;;;;;;;;10087346;28;20053;-65
2023/01/01 13:38:53;;;;;;;14.80;13.20;;;;;;;;;;10084835;28;20099;-64
2023/01/01 13:43:46;;;;;;;15.43;13.93;;;;;;;;;;10077290;28;20041;-63
2023/01/01 13:49:07;;;;;;;15.80;14.13;;;;;;;;;;10094867;28;20473;-64
2023/01/01 13:54:08;;;;;;;14.77;12.98;;;;;;;;;;10079821;28;20049;-64
2023/01/01 13:59:04;;;;;;;14.18;11.80;;;;;;;;;;10080850;28;20060;-63
2023/01/01 14:03:59;;;;;;;14.07;12.68;;;;;;;;;;10096672;28;20132;-64
2023/01/01 14:09:16;;;;;;;13.43;12.00;;;;;;;;;;10098029;28;20041;-65
2023/01/01 14:14:23;;;;;;;12.52;11.23;;;;;;;;;;10095407;28;20044;-64
2023/01/01 14:19:17;;;;;;;15.85;12.95;;;;;;;;;;10100143;28;20056;-64
2023/01/01 14:24:14;;;;;;;16.15;13.45;;;;;;;;;;10104366;28;20470;-64
2023/01/01 14:29:09;;;;;;;15.10;12.75;;;;;;;;;;10101894;28;20083;-64
2023/01/01 14:34:13;;;;;;;15.55;12.95;;;;;;;;;;10088429;28;20060;-64
2023/01/01 14:39:24;;;;;;;16.58;13.15;;;;;;;;;;10094328;28;20059;-64
2023/01/01 14:44:23;;;;;;;15.32;13.82;;;;;;;;;;10099060;28;20126;-63
2023/01/01 14:49:44;;;;;;;15.00;12.73;;;;;;;;;;10085927;28;20608;-63
2023/01/01 14:54:40;;;;;;;15.52;12.30;;;;;;;;;;10094000;28;20560;-63
2023/01/01 14:59:33;;;;;;;15.40;12.95;;;;;;;;;;10082373;28;20068;-62
2023/01/01 15:04:30;;;;;;;16.95;12.85;;;;;;;;;;10094998;28;20045;-63
2023/01/01 15:09:24;;;;;;;17.65;12.55;;;;;;;;;;10092403;28;20064;-63
2023/01/01 15:14:44;;;;;;;13.88;12.35;;;;;;;;;;10083085;28;20055;-63
2023/01/01 15:19:42;;;;;;;18.60;14.77;;;;;;;;;;10087007;28;20623;-64
2023/01/01 15:24:36;;;;;;;17.83;15.80;;;;;;;;;;10089838;28;20430;-63
2023/01/01 15:29:39;;;;;;;18.73;15.35;;;;;;;;;;10091590;28;20041;-63
2023/01/01 15:34:36;;;;;;;21.13;15.98;;;;;;;;;;10086960;28;20445;-63
2023/01/01 15:39:30;;;;;;;16.90;15.10;;;;;;;;;;10076437;28;20110;-63
2023/01/01 15:44:35;;;;;;;21.35;18.58;;;;;;;;;;10102901;28;20049;-63
2023/01/01 15:49:30;;;;;;;20.08;17.33;;;;;;;;;;10097753;28;20406;-63
2023/01/01 15:54:24;;;;;;;22.80;19.38;;;;;;;;;;10103416;28;20057;-63
2023/01/01 15:59:32;;;;;;;23.45;20.17;;;;;;;;;;10102272;28;20120;-63
2023/01/01 16:04:27;;;;;;;25.67;21.15;;;;;;;;;;10102198;28;20405;-63
2023/01/01 16:09:21;;;;;;;25.17;21.73;;;;;;;;;;10104150;28;20131;-65
2023/01/01 16:14:15;;;;;;;26.60;22.85;;;;;;;;;;10093789;28;20540;-71
2023/01/01 16:19:16;;;;;;;27.80;18.42;;;;;;;;;;10102832;28;20057;-72
2023/01/01 16:24:19;;;;;;;22.02;17.80;;;;;;;;;;10110306;28;20085;-71
2023/01/01 16:29:12;;;;;;;23.73;20.52;;;;;;;;;;10100319;28;20102;-66
2023/01/01 16:34:07;;;;;;;26.10;20.83;;;;;;;;;;10102372;28;20060;-65
2023/01/01 16:39:01;;;;;;;24.80;22.02;;;;;;;;;;10100554;28;20532;-65
2023/01/01 16:43:56;;;;;;;28.23;22.77;;;;;;;;;;10102718;28;20111;-65
2023/01/01 16:48:50;;;;;;;33.63;25.45;;;;;;;;;;10098935;28;20111;-65
2023/01/01 16:53:44;;;;;;;30.70;26.88;;;;;;;;;;10101902;28;20065;-65
2023/01/01 16:58:38;;;;;;;30.60;24.58;;;;;;;;;;10105528;28;20107;-65
2023/01/01 17:03:43;;;;;;;34.15;29.95;;;;;;;;;;10097660;28;20128;-64
2023/01/01 17:08:38;;;;;;;31.98;26.60;;;;;;;;;;10098877;28;20095;-64
2023/01/01 17:13:35;;;;;;;24.02;20.40;;;;;;;;;;10099997;28;20076;-65
2023/01/01 17:18:36;;;;;;;24.33;19.90;;;;;;;;;;10095278;28;20383;-64
2023/01/01 17:23:54;;;;;;;25.17;21.58;;;;;;;;;;10103962;28;20041;-64
2023/01/01 17:28:51;;;;;;;27.67;22.40;;;;;;;;;;10105726;28;20045;-65
2023/01/01 17:33:52;;;;;;;22.95;20.05;;;;;;;;;;10104767;28;20410;-65
2023/01/01 17:38:46;;;;;;;22.15;18.98;;;;;;;;;;10087808;28;20051;-65
2023/01/01 17:43:45;;;;;;;21.15;18.95;;;;;;;;;;10102757;28;20053;-64
2023/01/01 17:48:41;;;;;;;24.40;21.35;;;;;;;;;;10094422;28;20103;-66
2023/01/01 17:53:38;;;;;;;22.27;19.70;;;;;;;;;;10098594;28;20064;-67
2023/01/01 17:58:32;;;;;;;20.30;16.67;;;;;;;;;;10101102;28;20071;-67
2023/01/01 18:03:27;;;;;;;17.92;14.70;;;;;;;;;;10103961;28;20052;-66
2023/01/01 18:08:22;;;;;;;18.13;15.35;;;;;;;;;;10102551;28;20048;-65
2023/01/01 18:13:16;;;;;;;17.77;15.45;;;;;;;;;;10092924;28;20460;-65
2023/01/01 18:18:10;;;;;;;19.90;16.38;;;;;;;;;;10087854;28;20095;-65
2023/01/01 18:23:03;;;;;;;18.67;15.73;;;;;;;;;;10098122;28;20076;-65
2023/01/01 18:27:58;;;;;;;19.10;16.23;;;;;;;;;;10100344;28;20061;-66
2023/01/01 18:32:53;;;;;;;20.98;18.60;;;;;;;;;;10106446;28;20080;-66
2023/01/01 18:37:47;;;;;;;21.23;18.95;;;;;;;;;;10106211;28;20061;-66
2023/01/01 18:42:55;;;;;;;23.60;20.17;;;;;;;;;;10100243;28;20057;-66
2023/01/01 18:47:49;;;;;;;20.75;18.52;;;;;;;;;;10093426;28;20048;-66
2023/01/01 18:52:46;;;;;;;19.20;16.88;;;;;;;;;;10097974;28;20065;-65
2023/01/01 18:57:41;;;;;;;19.70;17.27;;;;;;;;;;10101013;28;20059;-66
2023/01/01 19:02:42;;;;;;;18.13;16.17;;;;;;;;;;10102660;28;20170;-65
2023/01/01 19:07:38;;;;;;;19.05;16.30;;;;;;;;;;10074616;28;20136;-65
2023/01/01 19:12:31;;;;;;;19.85;15.55;;;;;;;;;;10075550;28;20453;-65
2023/01/01 19:17:26;;;;;;;18.27;15.32;;;;;;;;;;10073206;28;20123;-64
2023/01/01 19:22:30;;;;;;;18.60;16.17;;;;;;;;;;10075074;28;20057;-65
2023/01/01 19:27:24;;;;;;;17.70;14.90;;;;;;;;;;10073809;28;20544;-64
2023/01/01 19:32:19;;;;;;;20.02;14.70;;;;;;;;;;10073593;28;20049;-65
2023/01/01 19:37:13;;;;;;;17.17;14.68;;;;;;;;;;10086944;28;20136;-65
2023/01/01 19:42:07;;;;;;;18.48;16.48;;;;;;;;;;10084754;28;20053;-67
2023/01/01 19:47:03;;;;;;;21.60;16.10;;;;;;;;;;10090036;28;20053;-69
2023/01/01 19:51:57;;;;;;;22.70;18.42;;;;;;;;;;10089915;28;20057;-68
2023/01/01 19:56:50;;;;;;;21.90;16.63;;;;;;;;;;10087977;28;20120;-68
2023/01/01 20:01:43;;;;;;;19.13;15.98;;;;;;;;;;10087829;28;20048;-71
2023/01/01 20:06:37;;;;;;;20.27;16.98;;;;;;;;;;10078088;28;20061;-71
2023/01/01 20:11:31;;;;;;;18.67;16.67;;;;;;;;;;10075266;28;20059;-71
2023/01/01 20:16:26;;;;;;;20.52;18.25;;;;;;;;;;10080358;28;20053;-71
2023/01/01 20:26:32;;;;;;;19.77;17.67;;;;;;;;;;10077253;28;20050;-71
2023/01/01 20:31:26;;;;;;;26.73;20.17;;;;;;;;;;10085474;28;20049;-71
2023/01/01 20:41:32;;;;;;;20.52;18.33;;;;;;;;;;10092155;28;20465;-71
2023/01/01 20:46:25;;;;;;;20.15;16.10;;;;;;;;;;10092058;28;20405;-71
2023/01/01 20:51:19;;;;;;;23.75;18.45;;;;;;;;;;10102079;28;20079;-72
2023/01/01 20:56:14;;;;;;;20.27;18.15;;;;;;;;;;10097967;28;20593;-72
2023/01/01 21:01:08;;;;;;;28.83;18.65;;;;;;;;;;10099731;28;20127;-72
2023/01/01 21:06:02;;;;;;;28.55;19.52;;;;;;;;;;10101811;28;20094;-73
2023/01/01 21:10:56;;;;;;;24.13;19.80;;;;;;;;;;10106623;28;20052;-72
2023/01/01 21:15:50;;;;;;;28.88;20.50;;;;;;;;;;10094022;28;20132;-72
2023/01/01 21:20:46;;;;;;;23.98;19.27;;;;;;;;;;10082277;28;20084;-73
2023/01/01 21:25:41;;;;;;;22.50;18.83;;;;;;;;;;10089569;28;20075;-72
2023/01/01 21:30:51;;;;;;;20.77;15.77;;;;;;;;;;10094797;28;20486;-70
2023/01/01 21:35:45;;;;;;;19.40;15.50;;;;;;;;;;10088124;28;20057;-69
2023/01/01 21:40:39;;;;;;;19.83;16.25;;;;;;;;;;10082567;28;20041;-67
2023/01/01 21:45:43;;;;;;;21.75;16.50;;;;;;;;;;10082168;28;20080;-68
2023/01/01 21:50:38;;;;;;;14.48;12.38;;;;;;;;;;10060509;28;20072;-67
2023/01/01 21:55:50;;;;;;;19.05;15.00;;;;;;;;;;10069220;28;20052;-67
2023/01/01 22:00:44;;;;;;;19.88;15.15;;;;;;;;;;10102923;28;20398;-68
2023/01/01 22:05:41;;;;;;;15.35;11.98;;;;;;;;;;10107714;28;20445;-67
2023/01/01 22:10:35;;;;;;;18.50;12.88;;;;;;;;;;10108304;28;20098;-67
2023/01/01 22:15:30;;;;;;;13.27;10.68;;;;;;;;;;10107797;28;20052;-67
2023/01/01 22:20:25;;;;;;;12.30;9.93;;;;;;;;;;10108408;28;20041;-67
2023/01/01 22:25:29;;;;;;;11.55;9.52;;;;;;;;;;10107304;28;20068;-67
2023/01/01 22:30:35;;;;;;;12.35;9.15;;;;;;;;;;10107026;28;20413;-67
2023/01/01 22:35:31;;;;;;;13.77;10.32;;;;;;;;;;10102784;28;20049;-67
2023/01/01 22:40:37;;;;;;;15.77;11.85;;;;;;;;;;10107275;28;20049;-67
2023/01/01 22:45:50;;;;;;;12.13;9.70;;;;;;;;;;10114981;28;20469;-68
2023/01/01 22:50:44;;;;;;;13.02;9.15;;;;;;;;;;10106206;28;20061;-67
2023/01/01 22:55:39;;;;;;;9.32;8.32;;;;;;;;;;10098005;28;20037;-67
2023/01/01 23:00:33;;;;;;;8.55;7.47;;;;;;;;;;10078686;28;20045;-67
2023/01/01 23:05:27;;;;;;;13.13;8.73;;;;;;;;;;10097807;28;20398;-67
2023/01/01 23:10:20;;;;;;;9.32;8.32;;;;;;;;;;10096360;28;20378;-67
2023/01/01 23:20:26;;;;;;;11.07;8.95;;;;;;;;;;10097975;28;20049;-67
2023/01/01 23:25:20;;;;;;;13.38;9.93;;;;;;;;;;10079145;28;20076;-67
2023/01/01 23:30:14;;;;;;;12.48;9.70;;;;;;;;;;10085102;28;20080;-67
2023/01/01 23:35:08;;;;;;;14.05;9.77;;;;;;;;;;10096156;28;20053;-67
2023/01/01 23:40:01;;;;;;;11.65;9.30;;;;;;;;;;10080053;28;20460;-67
2023/01/01 23:44:54;;;;;;;9.85;8.85;;;;;;;;;;10096573;28;20049;-67
2023/01/01 23:49:48;;;;;;;11.27;8.68;;;;;;;;;;10104612;28;20450;-67
2023/01/01 23:54:42;;;;;;;9.55;8.38;;;;;;;;;;10105979;28;20057;-67
2023/01/01 23:59:36;;;;;;;9.10;8.20;;;;;;;;;;10105345;28;20417;-67
